Airfield :
LOGIN :

Register | Disclaimer

   EN    FR    IT 

 










Legend :    VFR   Marginal VFR   IFR   Intensive IFR   Very Intensive IFR
Visi :
Ceiling :
>= 8 km
>= 3000ft
5 to 8 km
1000 to 3000 ft
1500m to 5 km
500 to 1000 ft
800 to 1500m
200 to 500 ft
< 800m
< 200 ft
Symbols :   Thunderstorms  Fog  Heavy snow  Heavy precipitations  Wind > 20 kt
SIGMETs :     Misc.  Thunderstorms  Icing  Turbulence  Mountain Waves  Volcanic Ashes






- Airport Elevation : 2031 ft


LEGT - Madrid Getafe

CURRENT METAR :
  • 141000Z 10005KT 9999 FEW025 16/11 Q1018

EXPIRED METARs :
  • 140930Z 09004KT 9999 FEW024 16/11 Q1018
  • 140900Z 08003KT 9999 FEW024 14/10 Q1018
  • 140830Z 08004KT CAVOK 14/10 Q1018
  • 140800Z VRB02KT 9999 FEW024 13/10 Q1018
  • 140730Z VRB02KT 9999 FEW020 BKN049 12/09 Q1018

TAF TAF LEGT
Valid from the 14 at 06:00 until the 15 at 06:00 UTC


140500Z 1406/1506 04007KT 9999 BKN050 TX20/1415Z TN10/1406Z
BECMG 1406/1407 09008KT
BECMG 1412/1413 14008KT
PROB30
TEMPO 1413/1418 FEW035TCU
BECMG 1419/1420 07007KT



MET'MAP, your aeronautical weather chart ! - Copyright ORBIFLY December 2007 - Disclaimer

ORBIFLY MET'MAP TEAM :

Programming & Development : Alexandra Zaïnal
Concept & original design : Baudouin d'Aumeries
Assistance for programming : Marc-Olivier Méhu
Technical & hardware support : Manuel Goepfert

Contact : metmap@orbifly.com




SOURCES & CREDITS :

   NOAA